Time;durP1;ratioP1;P1;durP2;ratioP2;P2;SDS_P1;SDS_P2;PMS_P1;PMS_P2;Temp;Humidity;BMP_temperature;BMP_pressure;BME280_temperature;BME280_humidity;BME280_pressure;Samples;Min_cycle;Max_cycle;Signal;HPM_P1;HPM_P2
2022/04/05 00:01:44;;;;;;;11.63;7.07;;;3.40;99.90;;;;;;5096023;28;20046;-68
2022/04/05 00:04:10;;;;;;;10.68;6.25;;;3.30;99.90;;;;;;5078137;28;20031;-68
2022/04/05 00:06:36;;;;;;;11.85;6.43;;;3.30;99.90;;;;;;5096071;28;20025;-68
2022/04/05 00:09:02;;;;;;;10.65;6.25;;;3.40;99.90;;;;;;5095971;28;20081;-68
2022/04/05 00:11:27;;;;;;;13.10;7.70;;;3.40;99.90;;;;;;5095907;28;20028;-68
2022/04/05 00:13:53;;;;;;;12.88;7.78;;;3.40;99.90;;;;;;5077747;28;20020;-68
2022/04/05 00:16:19;;;;;;;11.80;7.15;;;3.40;99.90;;;;;;5095858;28;20465;-68
2022/04/05 00:18:45;;;;;;;11.73;6.97;;;3.40;99.90;;;;;;5095321;28;20410;-68
2022/04/05 00:21:10;;;;;;;10.82;6.43;;;3.40;99.90;;;;;;5095779;28;20043;-68
2022/04/05 00:23:36;;;;;;;9.95;6.38;;;3.30;99.90;;;;;;5095705;28;20020;-68
2022/04/05 00:26:02;;;;;;;12.20;7.55;;;3.40;99.90;;;;;;5096006;28;20357;-68
2022/04/05 00:28:28;;;;;;;13.32;7.75;;;3.40;99.90;;;;;;5095904;28;20167;-68
2022/04/05 00:30:53;;;;;;;13.70;7.47;;;3.40;99.90;;;;;;5095887;28;20024;-68
2022/04/05 00:33:19;;;;;;;13.80;7.80;;;3.40;99.90;;;;;;5095496;28;20031;-68
2022/04/05 00:35:45;;;;;;;12.00;7.50;;;3.20;99.90;;;;;;5077350;28;20380;-68
2022/04/05 00:38:11;;;;;;;11.82;7.20;;;3.20;99.90;;;;;;5077294;28;20081;-68
2022/04/05 00:40:37;;;;;;;13.15;7.63;;;3.20;99.90;;;;;;5095607;28;20399;-68
2022/04/05 00:43:06;;;;;;;16.77;8.75;;;3.20;99.90;;;;;;5095476;28;20532;-68
2022/04/05 00:45:33;;;;;;;13.40;7.72;;;3.20;99.90;;;;;;5077106;28;20032;-68
2022/04/05 00:48:00;;;;;;;14.50;7.72;;;3.20;99.90;;;;;;5095540;28;20021;-68
2022/04/05 00:50:27;;;;;;;12.68;7.50;;;3.20;99.90;;;;;;5095176;28;20066;-68
2022/04/05 00:52:53;;;;;;;12.25;7.88;;;3.20;99.90;;;;;;5095060;28;20027;-68
2022/04/05 00:55:22;;;;;;;12.63;7.57;;;3.10;99.90;;;;;;5095413;28;20024;-68
2022/04/05 00:57:50;;;;;;;12.60;7.25;;;3.10;99.90;;;;;;5095007;28;20020;-68
2022/04/05 01:00:16;;;;;;;12.27;7.10;;;3.10;99.90;;;;;;5094950;28;20039;-68
2022/04/05 01:02:43;;;;;;;13.32;7.63;;;3.10;99.90;;;;;;5095087;28;20365;-68
2022/04/05 01:05:09;;;;;;;13.02;7.85;;;3.10;99.90;;;;;;5095182;28;20020;-68
2022/04/05 01:07:40;;;;;;;11.20;6.80;;;3.10;99.90;;;;;;5094843;28;20106;-68
2022/04/05 01:10:07;;;;;;;13.60;7.28;;;3.10;99.90;;;;;;5095127;28;20020;-68
2022/04/05 01:12:32;;;;;;;11.95;7.30;;;3.10;99.90;;;;;;5095003;28;20047;-68
2022/04/05 01:14:59;;;;;;;12.25;7.03;;;3.00;99.90;;;;;;5094615;28;20464;-68
2022/04/05 01:17:26;;;;;;;14.38;7.97;;;3.00;99.90;;;;;;5094700;28;20020;-68
2022/04/05 01:19:52;;;;;;;14.75;8.05;;;3.00;99.90;;;;;;5076499;28;20035;-68
2022/04/05 01:22:18;;;;;;;12.02;7.20;;;3.00;99.90;;;;;;5076293;28;20431;-68
2022/04/05 01:24:44;;;;;;;11.60;6.90;;;2.90;99.90;;;;;;5076343;28;20016;-68
2022/04/05 01:27:16;;;;;;;10.55;6.35;;;2.90;99.90;;;;;;5094469;28;20048;-68
2022/04/05 01:29:42;;;;;;;13.63;6.97;;;2.80;99.90;;;;;;5094517;28;20016;-68
2022/04/05 01:32:09;;;;;;;11.90;7.65;;;2.80;99.90;;;;;;5076227;28;20024;-68
2022/04/05 01:34:36;;;;;;;11.23;6.65;;;2.80;99.90;;;;;;5094312;28;20024;-68
2022/04/05 01:37:04;;;;;;;12.18;7.35;;;2.70;99.90;;;;;;5094575;28;20024;-68
2022/04/05 01:39:33;;;;;;;10.00;5.82;;;2.70;99.90;;;;;;5094545;28;20028;-68
2022/04/05 01:41:59;;;;;;;10.73;6.75;;;2.70;99.90;;;;;;5094724;28;20031;-68
2022/04/05 01:44:27;;;;;;;10.18;6.97;;;2.70;99.90;;;;;;5094171;28;20031;-68
2022/04/05 01:46:53;;;;;;;12.50;7.00;;;2.80;99.90;;;;;;5094429;28;20376;-68
2022/04/05 01:49:19;;;;;;;10.57;6.13;;;2.80;99.90;;;;;;5094281;28;20027;-68
2022/04/05 01:51:45;;;;;;;11.70;7.00;;;2.90;99.90;;;;;;5093857;28;20024;-68
2022/04/05 01:54:14;;;;;;;20.15;10.48;;;2.90;99.90;;;;;;5093775;28;20024;-68
2022/04/05 01:56:51;;;;;;;18.30;10.25;;;2.90;99.90;;;;;;5093761;28;20045;-68
2022/04/05 01:59:26;;;;;;;21.52;11.73;;;2.90;99.90;;;;;;5093677;28;20506;-68
2022/04/05 02:01:52;;;;;;;34.70;16.08;;;2.80;99.90;;;;;;5093903;28;20169;-68
2022/04/05 02:04:19;;;;;;;27.90;14.75;;;2.80;99.90;;;;;;5093615;28;20469;-68
2022/04/05 02:06:45;;;;;;;27.13;14.57;;;2.70;99.90;;;;;;5093881;28;20020;-68
2022/04/05 02:09:14;;;;;;;29.58;14.95;;;2.70;99.90;;;;;;5093619;28;20049;-68
2022/04/05 02:11:41;;;;;;;33.53;17.52;;;2.80;99.90;;;;;;5093748;28;20361;-68
2022/04/05 02:14:06;;;;;;;33.42;17.63;;;2.80;99.90;;;;;;5093788;28;20032;-68
2022/04/05 02:16:32;;;;;;;32.83;15.88;;;2.80;99.90;;;;;;5093710;28;20425;-68
2022/04/05 02:18:58;;;;;;;24.15;13.75;;;2.90;99.90;;;;;;5093964;28;20044;-68
2022/04/05 02:21:24;;;;;;;34.42;16.17;;;2.80;99.90;;;;;;5093594;28;20099;-68
2022/04/05 02:23:50;;;;;;;26.77;13.48;;;2.80;99.90;;;;;;5093482;28;20536;-68
2022/04/05 02:26:16;;;;;;;21.17;11.63;;;2.70;99.90;;;;;;5093539;28;20041;-68
2022/04/05 02:28:42;;;;;;;19.05;10.45;;;2.80;99.90;;;;;;5093550;28;20032;-68
2022/04/05 02:31:08;;;;;;;15.55;8.40;;;2.80;99.90;;;;;;5094098;28;20031;-68
2022/04/05 02:33:35;;;;;;;14.05;7.85;;;2.80;99.90;;;;;;5093473;28;20036;-68
2022/04/05 02:36:02;;;;;;;11.65;7.47;;;2.80;99.90;;;;;;5093465;28;20095;-68
2022/04/05 02:38:28;;;;;;;11.45;6.75;;;2.80;99.90;;;;;;5093446;28;20016;-68
2022/04/05 02:40:53;;;;;;;11.50;7.00;;;2.80;99.90;;;;;;5093669;28;20126;-68
2022/04/05 02:43:19;;;;;;;11.77;6.65;;;2.80;99.90;;;;;;5097157;28;20056;-68
2022/04/05 02:45:45;;;;;;;11.88;7.38;;;2.90;99.90;;;;;;5097850;28;20472;-68
2022/04/05 02:48:10;;;;;;;11.40;7.18;;;2.90;99.90;;;;;;5097567;28;20491;-68
2022/04/05 02:50:36;;;;;;;11.05;6.70;;;2.90;99.90;;;;;;5097840;28;20016;-68
2022/04/05 02:53:02;;;;;;;10.18;6.55;;;2.90;99.90;;;;;;5097421;28;20028;-68
2022/04/05 02:55:27;;;;;;;9.88;6.18;;;2.90;99.90;;;;;;5097436;28;20081;-68
2022/04/05 02:57:53;;;;;;;10.48;6.55;;;2.90;99.90;;;;;;5097397;28;20035;-68
2022/04/05 03:00:19;;;;;;;10.18;6.15;;;2.90;99.90;;;;;;5097228;28;20081;-68
2022/04/05 03:02:45;;;;;;;10.23;6.43;;;2.90;99.90;;;;;;5097441;28;20020;-68
2022/04/05 03:05:13;;;;;;;10.98;6.78;;;2.90;99.90;;;;;;5097517;28;20032;-68
2022/04/05 03:07:40;;;;;;;11.23;7.25;;;2.90;99.90;;;;;;5097453;28;20028;-68
2022/04/05 03:10:09;;;;;;;11.82;7.53;;;2.90;99.90;;;;;;5097683;28;20028;-68
2022/04/05 03:12:35;;;;;;;12.35;7.88;;;3.00;99.90;;;;;;5097019;28;20024;-68
2022/04/05 03:15:02;;;;;;;12.75;8.00;;;3.00;99.90;;;;;;5097053;28;20035;-68
2022/04/05 03:17:28;;;;;;;12.70;7.85;;;3.10;99.90;;;;;;5097290;28;20050;-68
2022/04/05 03:19:54;;;;;;;17.65;9.77;;;3.00;99.90;;;;;;5096979;28;20071;-68
2022/04/05 03:22:20;;;;;;;16.33;10.02;;;3.00;99.90;;;;;;5096858;28;20027;-68
2022/04/05 03:24:46;;;;;;;14.13;8.20;;;3.00;99.90;;;;;;5096791;28;20043;-68
2022/04/05 03:27:12;;;;;;;13.95;7.88;;;3.00;99.90;;;;;;5097108;28;20488;-68
2022/04/05 03:29:38;;;;;;;10.63;6.65;;;2.90;99.90;;;;;;5097054;28;20086;-68
2022/04/05 03:32:05;;;;;;;10.88;6.72;;;2.90;99.90;;;;;;5096753;28;20101;-68
2022/04/05 03:34:31;;;;;;;11.27;6.40;;;2.90;99.90;;;;;;5096936;28;20028;-68
2022/04/05 03:36:57;;;;;;;10.40;6.22;;;2.80;99.90;;;;;;5096981;28;20464;-68
2022/04/05 03:39:22;;;;;;;9.57;6.20;;;2.90;99.90;;;;;;5097132;28;20028;-68
2022/04/05 03:41:49;;;;;;;10.65;6.43;;;2.90;99.90;;;;;;5078564;28;20426;-68
2022/04/05 03:44:16;;;;;;;9.45;6.30;;;2.90;99.90;;;;;;5096548;28;20017;-68
2022/04/05 03:46:41;;;;;;;9.88;6.38;;;3.00;99.90;;;;;;5096643;28;20381;-68
2022/04/05 03:49:07;;;;;;;10.27;6.45;;;2.90;99.90;;;;;;5095070;28;20036;-68
2022/04/05 03:51:33;;;;;;;11.35;6.97;;;2.90;99.90;;;;;;5096381;28;20023;-68
2022/04/05 03:53:59;;;;;;;11.52;7.13;;;2.90;99.90;;;;;;5096448;28;20028;-68
2022/04/05 03:56:25;;;;;;;11.35;7.00;;;2.90;99.90;;;;;;5096082;28;20028;-68
2022/04/05 03:58:51;;;;;;;11.00;6.88;;;2.90;99.90;;;;;;5096794;28;20510;-68
2022/04/05 04:01:17;;;;;;;11.40;6.78;;;2.90;99.90;;;;;;5096089;28;20020;-67
2022/04/05 04:03:43;;;;;;;12.95;7.00;;;2.90;99.90;;;;;;5096081;28;20055;-68
2022/04/05 04:06:09;;;;;;;13.38;7.20;;;2.90;99.90;;;;;;5096030;28;20109;-68
2022/04/05 04:08:35;;;;;;;12.40;7.35;;;2.90;99.90;;;;;;5077932;28;20101;-68
2022/04/05 04:11:02;;;;;;;12.43;6.88;;;2.90;99.90;;;;;;5096041;28;20429;-68
2022/04/05 04:13:28;;;;;;;13.73;8.25;;;2.80;99.90;;;;;;5095780;28;20049;-68
2022/04/05 04:15:55;;;;;;;11.95;7.00;;;2.80;99.90;;;;;;5095162;28;20740;-67
2022/04/05 04:18:22;;;;;;;11.25;7.32;;;2.80;99.90;;;;;;5096362;28;20047;-67
2022/04/05 04:20:48;;;;;;;11.73;6.90;;;2.80;99.90;;;;;;5095410;28;20069;-68
2022/04/05 04:23:15;;;;;;;11.80;7.00;;;2.80;99.90;;;;;;5096655;28;20491;-68
2022/04/05 04:25:40;;;;;;;11.90;7.47;;;2.80;99.90;;;;;;5095903;28;20028;-68
2022/04/05 04:28:09;;;;;;;11.35;7.45;;;2.80;99.90;;;;;;5095954;28;20027;-67
2022/04/05 04:30:37;;;;;;;14.93;8.25;;;2.80;99.90;;;;;;5095099;28;20476;-67
2022/04/05 04:33:03;;;;;;;12.10;7.47;;;2.90;99.90;;;;;;5077310;28;20024;-67
2022/04/05 04:35:30;;;;;;;14.70;8.40;;;2.80;99.90;;;;;;5095503;28;20036;-67
2022/04/05 04:37:55;;;;;;;12.98;7.45;;;2.80;99.90;;;;;;5095339;28;20024;-67
2022/04/05 04:40:21;;;;;;;16.88;8.85;;;2.80;99.90;;;;;;5095468;28;20028;-67
2022/04/05 04:42:47;;;;;;;13.70;8.35;;;2.80;99.90;;;;;;5095534;28;20482;-68
2022/04/05 04:45:13;;;;;;;15.10;7.95;;;2.80;99.90;;;;;;5095336;28;20017;-67
2022/04/05 04:47:39;;;;;;;12.95;7.03;;;2.80;99.90;;;;;;5095290;28;20048;-67
2022/04/05 04:50:07;;;;;;;13.50;7.72;;;2.80;99.90;;;;;;5095243;28;20384;-67
2022/04/05 04:52:32;;;;;;;18.30;8.75;;;2.80;99.90;;;;;;5095406;28;20032;-67
2022/04/05 04:54:58;;;;;;;15.73;8.95;;;2.80;99.90;;;;;;5095074;28;20384;-67
2022/04/05 04:57:25;;;;;;;15.63;9.15;;;2.80;99.90;;;;;;5095120;28;20016;-67
2022/04/05 04:59:52;;;;;;;16.65;9.70;;;2.80;99.90;;;;;;5095036;28;20070;-67
2022/04/05 05:02:18;;;;;;;19.48;10.23;;;2.80;99.90;;;;;;5094913;28;20058;-68
2022/04/05 05:04:44;;;;;;;15.13;9.35;;;2.80;99.90;;;;;;5094366;28;20020;-68
2022/04/05 05:07:09;;;;;;;15.35;9.38;;;2.80;99.90;;;;;;5076903;28;20016;-68
2022/04/05 05:09:35;;;;;;;16.98;9.48;;;2.80;99.90;;;;;;5095129;28;20377;-68
2022/04/05 05:12:01;;;;;;;19.98;11.02;;;2.70;99.90;;;;;;5094806;28;20055;-68
2022/04/05 05:14:27;;;;;;;15.55;10.20;;;2.70;99.90;;;;;;5094682;28;20537;-68
2022/04/05 05:16:54;;;;;;;15.43;8.57;;;2.80;99.90;;;;;;5094733;28;20034;-68
2022/04/05 05:19:21;;;;;;;18.17;9.27;;;2.80;99.90;;;;;;5094979;28;20031;-68
2022/04/05 05:21:46;;;;;;;15.07;9.40;;;2.80;99.90;;;;;;5094538;28;20032;-68
2022/04/05 05:24:12;;;;;;;16.08;8.73;;;2.80;99.90;;;;;;5094505;28;20056;-68
2022/04/05 05:26:38;;;;;;;16.08;9.23;;;2.90;99.90;;;;;;5094794;28;20039;-68
2022/04/05 05:29:04;;;;;;;12.27;7.88;;;2.80;99.90;;;;;;5094782;28;20023;-68
2022/04/05 05:31:29;;;;;;;14.82;8.48;;;2.80;99.90;;;;;;5094466;28;20030;-68
2022/04/05 05:33:55;;;;;;;14.38;7.72;;;2.80;99.90;;;;;;5094352;28;20016;-68
2022/04/05 05:36:21;;;;;;;11.30;7.68;;;2.80;99.90;;;;;;5094331;28;20055;-68
2022/04/05 05:38:46;;;;;;;12.50;8.05;;;2.80;99.90;;;;;;5094305;28;20077;-68
2022/04/05 05:41:12;;;;;;;12.63;7.60;;;2.80;99.90;;;;;;5094228;28;20055;-68
2022/04/05 05:43:38;;;;;;;12.48;7.07;;;2.80;99.90;;;;;;5094798;28;20440;-68
2022/04/05 05:46:06;;;;;;;11.80;7.28;;;2.80;99.90;;;;;;5094177;28;20027;-68
2022/04/05 05:48:33;;;;;;;13.75;7.55;;;2.80;99.90;;;;;;5094848;28;20016;-69
2022/04/05 05:50:59;;;;;;;10.05;6.38;;;2.90;99.90;;;;;;5094386;28;20024;-70
2022/04/05 05:53:24;;;;;;;13.02;7.50;;;2.90;99.90;;;;;;5093942;28;20081;-70
2022/04/05 05:55:50;;;;;;;13.45;7.82;;;3.00;99.90;;;;;;5093987;28;20081;-70
2022/04/05 05:58:16;;;;;;;13.55;7.75;;;3.00;99.90;;;;;;5094200;28;20111;-70
2022/04/05 06:00:42;;;;;;;13.57;7.13;;;3.10;99.90;;;;;;5093796;28;20063;-70
2022/04/05 06:03:10;;;;;;;12.18;7.90;;;3.10;99.90;;;;;;5093763;28;20024;-70
2022/04/05 06:05:36;;;;;;;12.45;7.50;;;3.10;99.90;;;;;;5075660;28;20020;-69
2022/04/05 06:08:04;;;;;;;13.93;8.13;;;3.10;99.90;;;;;;5094135;28;20464;-70
2022/04/05 06:10:30;;;;;;;14.13;7.57;;;3.10;99.90;;;;;;5093814;28;20020;-70
2022/04/05 06:12:57;;;;;;;11.85;7.53;;;3.10;99.90;;;;;;5075584;28;20061;-70
2022/04/05 06:15:25;;;;;;;13.10;7.20;;;3.10;99.90;;;;;;5093702;28;20025;-70
2022/04/05 06:17:51;;;;;;;17.27;8.90;;;3.20;99.90;;;;;;5092932;28;20024;-70
2022/04/05 06:20:19;;;;;;;18.10;9.57;;;3.20;99.90;;;;;;5093646;28;20095;-70
2022/04/05 06:22:49;;;;;;;16.45;8.55;;;3.20;99.90;;;;;;5093525;28;20097;-70
2022/04/05 06:25:20;;;;;;;12.40;7.77;;;3.20;99.90;;;;;;5075558;28;20047;-70
2022/04/05 06:27:46;;;;;;;42.17;11.38;;;3.20;99.90;;;;;;5093663;28;20103;-70
2022/04/05 06:30:13;;;;;;;18.83;8.57;;;3.20;99.90;;;;;;5075407;28;20097;-70
2022/04/05 06:32:39;;;;;;;19.60;9.13;;;3.20;99.90;;;;;;5093698;28;20028;-70
2022/04/05 06:35:07;;;;;;;16.45;9.02;;;3.30;99.90;;;;;;5093511;28;20391;-70
2022/04/05 06:37:35;;;;;;;11.85;7.47;;;3.30;99.90;;;;;;5075323;28;20024;-70
2022/04/05 06:40:02;;;;;;;9.00;5.88;;;3.30;99.90;;;;;;5093752;28;20024;-70
2022/04/05 06:42:29;;;;;;;10.73;6.28;;;3.40;99.90;;;;;;5093613;28;20024;-70
2022/04/05 06:44:54;;;;;;;27.33;8.05;;;3.40;99.90;;;;;;5093304;28;20020;-70
2022/04/05 06:47:20;;;;;;;62.13;12.32;;;3.40;99.90;;;;;;5075210;28;20027;-70
2022/04/05 06:49:46;;;;;;;69.25;11.10;;;3.40;99.90;;;;;;5093816;28;20027;-70
2022/04/05 06:52:12;;;;;;;21.05;9.88;;;3.50;99.90;;;;;;5093597;28;20032;-70
2022/04/05 06:54:38;;;;;;;23.38;10.07;;;3.50;99.90;;;;;;5093240;28;20020;-70
2022/04/05 06:57:03;;;;;;;26.52;10.32;;;3.50;99.90;;;;;;5093597;28;20050;-70
2022/04/05 06:59:29;;;;;;;25.77;8.75;;;3.50;99.90;;;;;;5093133;28;20047;-70
2022/04/05 07:01:55;;;;;;;13.60;8.43;;;3.50;99.90;;;;;;5093117;28;20020;-70
2022/04/05 07:04:20;;;;;;;13.85;8.32;;;3.50;99.90;;;;;;5093151;28;20093;-70
2022/04/05 07:06:46;;;;;;;11.32;7.18;;;3.60;99.90;;;;;;5075039;28;20031;-70
2022/04/05 07:09:12;;;;;;;15.40;8.38;;;3.60;99.90;;;;;;5076169;28;20054;-70
2022/04/05 07:11:37;;;;;;;17.60;8.45;;;3.60;99.90;;;;;;5093130;28;20464;-70
2022/04/05 07:14:03;;;;;;;13.90;7.88;;;3.60;99.90;;;;;;5093853;28;20111;-70
2022/04/05 07:16:29;;;;;;;14.10;8.25;;;3.60;99.90;;;;;;5093365;28;20024;-70
2022/04/05 07:18:55;;;;;;;14.80;8.25;;;3.60;99.90;;;;;;5093356;28;20029;-70
2022/04/05 07:21:20;;;;;;;19.23;8.27;;;3.60;99.90;;;;;;5093315;28;20024;-70
2022/04/05 07:23:49;;;;;;;33.53;9.85;;;3.70;99.90;;;;;;5074781;28;20024;-70
2022/04/05 07:26:15;;;;;;;17.20;8.43;;;3.70;99.90;;;;;;5075049;28;20107;-70
2022/04/05 07:28:41;;;;;;;13.60;7.15;;;3.70;99.90;;;;;;5077083;28;20103;-70
2022/04/05 07:31:07;;;;;;;10.77;6.30;;;3.70;99.90;;;;;;5097091;28;20044;-70
2022/04/05 07:33:33;;;;;;;12.10;6.05;;;3.70;99.90;;;;;;5097207;28;20032;-70
2022/04/05 07:35:58;;;;;;;9.13;5.70;;;3.80;99.90;;;;;;5096713;28;20108;-70
2022/04/05 07:38:24;;;;;;;12.57;5.43;;;3.80;99.90;;;;;;5096604;28;20545;-70
2022/04/05 07:40:52;;;;;;;9.10;4.55;;;3.70;99.90;;;;;;5096625;28;20020;-69
2022/04/05 07:43:23;;;;;;;6.65;4.05;;;3.70;99.90;;;;;;5078237;28;20055;-69
2022/04/05 07:45:49;;;;;;;;;;;3.70;99.90;;;;;;5096916;28;20492;-69
2022/04/05 07:48:22;;;;;;;7.72;4.93;;;3.70;99.90;;;;;;5096711;28;19930;-67
2022/04/05 07:50:49;;;;;;;64.47;10.75;;;3.70;99.90;;;;;;5096753;28;20072;-69
2022/04/05 07:53:15;;;;;;;24.33;6.60;;;3.80;99.90;;;;;;5078184;28;20020;-68
2022/04/05 07:55:41;;;;;;;25.58;7.47;;;3.70;99.90;;;;;;5096316;28;20024;-68
2022/04/05 07:58:06;;;;;;;8.50;5.40;;;3.70;99.90;;;;;;5096231;28;20020;-68
2022/04/05 08:00:32;;;;;;;10.95;5.47;;;3.70;99.90;;;;;;5095988;28;20042;-68
2022/04/05 08:02:58;;;;;;;12.13;6.32;;;3.70;99.90;;;;;;5096244;28;20036;-68
2022/04/05 08:05:24;;;;;;;11.70;5.85;;;3.70;99.90;;;;;;5096362;28;20031;-68
2022/04/05 08:07:51;;;;;;;11.32;6.05;;;3.70;99.90;;;;;;5077878;28;20024;-68
2022/04/05 08:10:16;;;;;;;11.13;5.82;;;3.70;99.90;;;;;;5077918;28;20021;-68
2022/04/05 08:12:44;;;;;;;12.60;5.72;;;3.70;99.90;;;;;;5096182;28;20075;-68
2022/04/05 08:15:16;;;;;;;9.75;5.15;;;3.70;99.90;;;;;;5095920;28;20020;-68
2022/04/05 08:17:42;;;;;;;9.52;5.10;;;3.70;99.90;;;;;;5096176;28;20090;-68
2022/04/05 08:20:09;;;;;;;9.75;5.00;;;3.60;99.90;;;;;;5096052;28;20024;-68
2022/04/05 08:22:35;;;;;;;9.27;5.45;;;3.70;99.90;;;;;;5095999;28;20035;-67
2022/04/05 08:25:00;;;;;;;9.48;5.38;;;3.70;99.90;;;;;;5077446;28;20024;-67
2022/04/05 08:27:26;;;;;;;8.80;4.80;;;3.70;99.90;;;;;;5077472;28;20114;-67
2022/04/05 08:29:52;;;;;;;15.38;6.93;;;3.70;99.90;;;;;;5077567;28;20024;-67
2022/04/05 08:32:17;;;;;;;13.75;5.40;;;3.70;99.90;;;;;;5095903;28;20028;-67
2022/04/05 08:34:45;;;;;;;8.57;4.82;;;3.70;99.90;;;;;;5095427;28;20024;-67
2022/04/05 08:37:12;;;;;;;8.10;5.03;;;3.70;99.90;;;;;;5095487;28;20047;-67
2022/04/05 08:39:39;;;;;;;9.40;5.20;;;3.80;99.90;;;;;;5095151;28;20020;-67
2022/04/05 08:42:06;;;;;;;8.82;5.20;;;3.80;99.90;;;;;;5077182;28;20028;-67
2022/04/05 08:44:32;;;;;;;8.32;4.40;;;3.80;99.90;;;;;;5095286;28;20027;-67
2022/04/05 08:47:03;;;;;;;7.35;4.40;;;3.90;99.90;;;;;;5095574;28;20020;-67
2022/04/05 08:49:30;;;;;;;7.25;5.03;;;3.90;99.90;;;;;;5077124;28;20023;-67
2022/04/05 08:51:57;;;;;;;8.65;5.70;;;4.00;99.90;;;;;;5095408;28;20073;-67
2022/04/05 08:54:23;;;;;;;8.95;5.57;;;4.00;99.90;;;;;;5095319;28;20021;-67
2022/04/05 08:56:50;;;;;;;8.18;5.13;;;4.10;99.90;;;;;;5095139;28;20024;-67
2022/04/05 08:59:16;;;;;;;9.10;4.55;;;4.20;99.90;;;;;;5094976;28;20062;-67
2022/04/05 09:01:43;;;;;;;8.48;5.07;;;4.30;99.90;;;;;;5095531;28;20020;-67
2022/04/05 09:04:10;;;;;;;8.05;4.55;;;4.40;99.90;;;;;;5094968;28;20066;-67
2022/04/05 09:06:36;;;;;;;7.35;4.63;;;4.60;99.90;;;;;;5095208;28;20023;-67
2022/04/05 09:09:18;;;;;;;7.68;4.43;;;4.70;99.90;;;;;;5094885;28;20020;-67
2022/04/05 09:11:46;;;;;;;6.05;3.70;;;4.80;99.90;;;;;;5094830;28;20412;-67
2022/04/05 09:14:13;;;;;;;6.30;3.13;;;4.90;99.90;;;;;;5076505;28;20028;-67
2022/04/05 09:16:39;;;;;;;5.95;3.60;;;4.90;99.90;;;;;;5095034;28;20028;-67
2022/04/05 09:19:12;;;;;;;7.90;4.13;;;5.00;99.90;;;;;;5094985;28;20028;-67
2022/04/05 09:21:58;;;;;;;6.85;3.45;;;5.00;99.90;;;;;;5094930;28;20028;-67
2022/04/05 09:24:34;;;;;;;6.88;4.20;;;5.10;99.90;;;;;;5094856;28;20055;-67
2022/04/05 09:27:00;;;;;;;7.03;4.05;;;5.10;99.90;;;;;;5094558;28;20025;-67
2022/04/05 09:29:44;;;;;;;7.50;3.90;;;5.20;99.90;;;;;;5094532;28;20017;-67
2022/04/05 09:32:11;;;;;;;9.82;4.50;;;5.20;99.90;;;;;;5094675;28;20064;-67
2022/04/05 09:34:50;;;;;;;7.88;4.10;;;5.30;99.90;;;;;;5094369;28;20060;-67
2022/04/05 09:37:24;;;;;;;6.57;3.70;;;5.30;99.90;;;;;;5076323;28;20032;-67
2022/04/05 09:39:49;;;;;;;6.20;3.88;;;5.40;99.90;;;;;;5094680;28;20156;-67
2022/04/05 09:42:15;;;;;;;6.05;3.90;;;5.30;99.90;;;;;;5094275;28;20107;-67
2022/04/05 09:44:42;;;;;;;15.57;5.55;;;5.40;99.90;;;;;;5094202;28;20020;-67
2022/04/05 09:47:10;;;;;;;5.72;3.90;;;5.40;99.90;;;;;;5094497;28;20027;-67
2022/04/05 09:49:38;;;;;;;10.32;4.38;;;5.40;99.90;;;;;;5094711;28;20020;-67
2022/04/05 09:52:23;;;;;;;17.00;3.95;;;5.40;99.90;;;;;;5075781;28;20032;-67
2022/04/05 09:54:49;;;;;;;22.67;5.47;;;5.50;99.90;;;;;;5094299;28;20020;-68
2022/04/05 09:57:14;;;;;;;7.30;3.45;;;5.50;99.90;;;;;;5093985;28;20095;-67
2022/04/05 09:59:42;;;;;;;6.95;3.10;;;5.50;99.90;;;;;;5075621;28;20032;-67
2022/04/05 10:02:14;;;;;;;7.13;3.63;;;5.50;99.90;;;;;;5094988;28;20031;-67
2022/04/05 10:05:00;;;;;;;5.50;3.65;;;5.50;99.90;;;;;;5094666;28;20020;-67
2022/04/05 10:07:28;;;;;;;5.43;3.60;;;5.60;99.90;;;;;;5094645;28;20080;-67
2022/04/05 10:09:54;;;;;;;6.28;3.97;;;5.50;99.90;;;;;;5094953;28;20031;-67
2022/04/05 10:12:21;;;;;;;8.57;4.25;;;5.60;99.90;;;;;;5094128;28;20473;-68
2022/04/05 10:14:47;;;;;;;6.78;4.10;;;5.60;99.90;;;;;;5094705;28;20028;-68
2022/04/05 10:17:14;;;;;;;5.45;3.70;;;5.70;99.90;;;;;;5094024;28;20106;-68
2022/04/05 10:19:45;;;;;;;6.15;3.50;;;5.70;99.90;;;;;;5093678;28;20032;-68
2022/04/05 10:22:14;;;;;;;6.68;3.38;;;5.80;99.90;;;;;;5075508;28;20028;-68
2022/04/05 10:24:41;;;;;;;5.43;3.67;;;5.90;99.90;;;;;;5093583;28;20071;-68
2022/04/05 10:27:08;;;;;;;6.15;3.40;;;6.00;99.90;;;;;;5093593;28;20024;-67
2022/04/05 10:29:34;;;;;;;5.72;3.10;;;6.00;99.90;;;;;;5093525;28;20073;-67
2022/04/05 10:32:43;;;;;;;5.70;3.53;;;6.00;99.90;;;;;;5093535;28;20028;-68
2022/04/05 10:35:10;;;;;;;6.70;3.70;;;5.90;99.90;;;;;;5011847;28;20109;-68
2022/04/05 10:37:38;;;;;;;5.35;3.42;;;6.00;99.90;;;;;;5011560;28;20389;-67
2022/04/05 10:40:04;;;;;;;6.10;3.55;;;6.10;99.90;;;;;;5054586;28;20028;-68
2022/04/05 10:42:52;;;;;;;5.03;3.42;;;6.20;99.90;;;;;;5093682;28;20016;-68
2022/04/05 10:45:30;;;;;;;6.57;3.22;;;6.30;99.90;;;;;;5093871;28;20024;-68
2022/04/05 10:48:10;;;;;;;6.97;3.28;;;6.40;99.90;;;;;;5093781;28;20074;-67
2022/04/05 10:50:35;;;;;;;6.68;3.33;;;6.50;99.90;;;;;;5075388;28;20016;-67
2022/04/05 10:53:13;;;;;;;5.03;2.88;;;6.60;99.90;;;;;;5093566;28;20028;-68
2022/04/05 10:56:03;;;;;;;5.70;3.10;;;6.60;99.90;;;;;;5075319;28;20480;-67
2022/04/05 10:58:33;;;;;;;6.13;3.70;;;6.60;99.90;;;;;;5093247;28;20099;-68
2022/04/05 11:01:22;;;;;;;5.43;3.42;;;6.60;99.90;;;;;;5093814;28;20044;-68
2022/04/05 11:04:12;;;;;;;4.78;2.80;;;6.50;99.90;;;;;;5095911;28;20492;-68
2022/04/05 11:06:59;;;;;;;5.30;3.03;;;6.50;99.90;;;;;;5098196;28;20107;-68
2022/04/05 11:09:42;;;;;;;4.03;2.75;;;6.60;99.90;;;;;;5097198;28;20093;-68
2022/04/05 11:12:17;;;;;;;6.32;2.97;;;6.60;99.90;;;;;;5097807;28;20461;-67
2022/04/05 11:14:51;;;;;;;5.90;3.58;;;6.60;99.90;;;;;;5097389;28;20020;-68
2022/04/05 11:17:20;;;;;;;5.28;3.28;;;6.60;99.90;;;;;;5097423;28;20096;-67
2022/04/05 11:19:47;;;;;;;9.52;3.50;;;6.60;99.90;;;;;;5096987;28;20012;-68
2022/04/05 11:22:23;;;;;;;16.30;4.20;;;6.70;99.90;;;;;;5096945;28;20443;-68
2022/04/05 11:24:51;;;;;;;25.33;5.20;;;6.70;99.90;;;;;;5096892;28;20016;-68
2022/04/05 11:27:32;;;;;;;5.90;3.60;;;6.80;99.90;;;;;;5096845;28;20027;-68
2022/04/05 11:30:22;;;;;;;7.35;3.80;;;6.80;99.90;;;;;;5078803;28;20027;-68
2022/04/05 11:33:09;;;;;;;7.60;3.53;;;6.80;99.90;;;;;;5097349;28;20028;-67
2022/04/05 11:35:50;;;;;;;5.65;3.22;;;6.90;99.90;;;;;;5097086;28;20020;-68
2022/04/05 11:38:18;;;;;;;8.17;3.80;;;7.00;99.90;;;;;;5078538;28;20551;-68
2022/04/05 11:40:46;;;;;;;5.38;3.33;;;7.00;99.90;;;;;;5078542;28;20026;-68
2022/04/05 11:43:24;;;;;;;5.25;3.20;;;7.10;99.90;;;;;;5096460;28;20024;-68
2022/04/05 11:45:52;;;;;;;8.35;5.00;;;7.10;99.90;;;;;;5096612;28;20040;-68
2022/04/05 11:48:22;;;;;;;8.52;4.97;;;7.10;99.90;;;;;;5079605;28;20066;-69
2022/04/05 11:50:49;;;;;;;21.30;5.03;;;7.10;99.90;;;;;;5096729;28;20028;-70
2022/04/05 11:53:29;;;;;;;6.72;3.83;;;7.20;99.90;;;;;;5096677;28;20164;-69
2022/04/05 11:56:13;;;;;;;6.72;3.33;;;7.10;99.90;;;;;;5096915;28;20020;-69
2022/04/05 11:58:50;;;;;;;5.47;3.25;;;7.20;99.90;;;;;;5096181;28;20032;-70
2022/04/05 12:01:30;;;;;;;5.00;3.42;;;7.20;99.90;;;;;;5096224;28;20031;-70
2022/04/05 12:04:22;;;;;;;3.88;2.75;;;7.30;99.90;;;;;;5096207;28;20028;-70
2022/04/05 12:06:53;;;;;;;5.50;3.08;;;7.30;99.90;;;;;;5096257;28;20016;-70
2022/04/05 12:09:20;;;;;;;5.03;2.95;;;7.40;99.90;;;;;;5096478;28;20027;-70
2022/04/05 12:11:48;;;;;;;5.65;3.33;;;7.40;99.90;;;;;;5096090;28;20024;-70
2022/04/05 12:14:16;;;;;;;4.80;2.65;;;7.50;99.90;;;;;;5094618;28;20478;-70
2022/04/05 12:16:47;;;;;;;5.05;2.55;;;7.60;99.90;;;;;;5095972;28;20377;-70
2022/04/05 12:19:23;;;;;;;5.53;2.88;;;7.70;99.90;;;;;;5096295;28;20023;-70
2022/04/05 12:21:55;;;;;;;5.22;2.47;;;7.70;99.90;;;;;;5096023;28;20031;-70
2022/04/05 12:24:22;;;;;;;18.08;5.00;;;7.90;99.90;;;;;;5095825;28;20044;-70
2022/04/05 12:26:48;;;;;;;11.75;4.28;;;8.00;99.90;;;;;;5095781;28;20028;-71
2022/04/05 12:29:14;;;;;;;18.10;3.92;;;8.10;99.90;;;;;;5095714;28;20473;-71
2022/04/05 12:31:40;;;;;;;8.35;2.95;;;8.20;99.90;;;;;;5095844;28;20094;-70
2022/04/05 12:34:13;;;;;;;6.07;2.92;;;8.30;99.90;;;;;;5091241;28;20047;-70
2022/04/05 12:36:54;;;;;;;10.90;3.38;;;8.40;99.90;;;;;;5094028;28;20027;-69
2022/04/05 12:39:25;;;;;;;5.32;2.80;;;8.40;99.90;;;;;;5089095;28;20031;-70
2022/04/05 12:41:54;;;;;;;4.82;3.25;;;8.50;99.90;;;;;;5091198;28;20499;-69
2022/04/05 12:44:22;;;;;;;6.10;3.63;;;8.50;99.90;;;;;;5075473;28;20035;-69
2022/04/05 12:46:59;;;;;;;4.22;2.30;;;8.50;99.90;;;;;;5075566;28;20477;-69
2022/04/05 12:49:38;;;;;;;5.00;3.10;;;8.50;99.90;;;;;;5089572;28;20354;-68
2022/04/05 12:52:21;;;;;;;7.32;3.05;;;8.60;99.90;;;;;;5091519;28;20016;-69
2022/04/05 12:54:51;;;;;;;4.00;2.53;;;8.60;99.90;;;;;;5086126;28;20033;-69
2022/04/05 12:57:37;;;;;;;4.45;2.60;;;8.70;99.90;;;;;;5082778;28;20016;-69